Time;durP1;ratioP1;P1;durP2;ratioP2;P2;SDS_P1;SDS_P2;PMS_P1;PMS_P2;Temp;Humidity;BMP_temperature;BMP_pressure;BME280_temperature;BME280_humidity;BME280_pressure;Samples;Min_cycle;Max_cycle;Signal;HPM_P1;HPM_P2
2022/11/12 00:03:07;;;;;;;2.38;2.30;;;;;;;;;;10498595;28;20209;-71
2022/11/12 00:08:27;;;;;;;2.53;2.42;;;;;;;;;;10498522;28;20260;-71
2022/11/12 00:13:47;;;;;;;2.85;2.65;;;;;;;;;;10483709;28;20218;-71
2022/11/12 00:19:07;;;;;;;3.13;2.72;;;;;;;;;;10500796;28;20324;-71
2022/11/12 00:24:27;;;;;;;2.78;2.58;;;;;;;;;;10483051;28;20197;-71
2022/11/12 00:29:46;;;;;;;2.95;2.70;;;;;;;;;;10495780;28;20245;-70
2022/11/12 00:35:07;;;;;;;3.38;2.70;;;;;;;;;;10496617;28;20210;-70
2022/11/12 00:40:27;;;;;;;2.67;1.88;;;;;;;;;;10487052;28;20226;-71
2022/11/12 00:45:47;;;;;;;2.28;2.17;;;;;;;;;;10501813;28;20925;-71
2022/11/12 00:51:06;;;;;;;1.90;1.80;;;;;;;;;;10490425;28;20248;-71
2022/11/12 00:56:26;;;;;;;2.03;1.92;;;;;;;;;;10498633;28;20248;-70
2022/11/12 01:01:46;;;;;;;2.03;1.92;;;;;;;;;;10501563;28;20216;-70
2022/11/12 01:07:06;;;;;;;2.55;2.03;;;;;;;;;;10497540;28;20248;-71
2022/11/12 01:12:26;;;;;;;1.83;1.75;;;;;;;;;;10502506;28;20217;-71
2022/11/12 01:17:46;;;;;;;1.65;1.60;;;;;;;;;;10483190;28;20693;-71
2022/11/12 01:23:06;;;;;;;1.77;1.67;;;;;;;;;;10491670;28;20974;-71
2022/11/12 01:28:26;;;;;;;3.28;1.25;;;;;;;;;;10482443;28;20664;-71
2022/11/12 01:33:47;;;;;;;1.75;1.60;;;;;;;;;;10501279;28;20748;-71
2022/11/12 01:39:07;;;;;;;3.08;1.58;;;;;;;;;;10493874;28;21314;-71
2022/11/12 01:44:30;;;;;;;1.83;1.73;;;;;;;;;;10495850;28;20214;-71
2022/11/12 01:49:55;;;;;;;2.35;1.48;;;;;;;;;;10493388;28;20788;-69
2022/11/12 01:55:17;;;;;;;2.35;1.95;;;;;;;;;;10497361;28;20198;-71
2022/11/12 02:00:36;;;;;;;1.73;1.63;;;;;;;;;;10495797;28;20252;-71
2022/11/12 02:05:58;;;;;;;1.52;1.33;;;;;;;;;;10496891;28;20206;-71
2022/11/12 02:11:19;;;;;;;2.10;1.90;;;;;;;;;;10496346;28;20602;-71
2022/11/12 02:16:40;;;;;;;2.22;1.60;;;;;;;;;;10494458;28;20209;-71
2022/11/12 02:22:00;;;;;;;1.42;1.42;;;;;;;;;;10498529;28;20225;-70
2022/11/12 02:27:20;;;;;;;4.60;1.55;;;;;;;;;;10496678;28;20213;-71
2022/11/12 02:32:40;;;;;;;1.42;1.35;;;;;;;;;;10494080;28;20294;-71
2022/11/12 02:37:59;;;;;;;6.22;1.10;;;;;;;;;;10496377;28;20213;-70
2022/11/12 02:43:19;;;;;;;3.40;1.30;;;;;;;;;;10498171;28;20210;-71
2022/11/12 02:48:39;;;;;;;1.23;1.23;;;;;;;;;;10498268;28;20207;-71
2022/11/12 02:53:59;;;;;;;0.80;0.80;;;;;;;;;;10495362;28;20213;-71
2022/11/12 02:59:19;;;;;;;1.90;0.77;;;;;;;;;;10488209;28;20217;-71
2022/11/12 03:04:38;;;;;;;1.17;1.10;;;;;;;;;;10491183;28;20675;-71
2022/11/12 03:09:58;;;;;;;0.98;0.98;;;;;;;;;;10507749;28;20296;-71
2022/11/12 03:15:18;;;;;;;1.65;1.45;;;;;;;;;;10506520;28;20222;-71
2022/11/12 03:20:37;;;;;;;1.05;0.98;;;;;;;;;;10499731;28;20222;-71
2022/11/12 03:25:57;;;;;;;0.98;0.98;;;;;;;;;;10502227;28;20210;-70
2022/11/12 03:31:17;;;;;;;0.90;0.90;;;;;;;;;;10505552;28;20213;-71
2022/11/12 03:36:37;;;;;;;1.10;1.10;;;;;;;;;;10490787;28;20210;-70
2022/11/12 03:41:57;;;;;;;2.13;1.70;;;;;;;;;;10503435;28;20225;-70
2022/11/12 03:47:17;;;;;;;1.20;1.20;;;;;;;;;;10498392;28;20213;-70
2022/11/12 03:52:37;;;;;;;1.65;1.65;;;;;;;;;;10498462;28;20296;-71
2022/11/12 03:57:57;;;;;;;4.68;1.73;;;;;;;;;;10487443;28;20205;-71
2022/11/12 04:03:17;;;;;;;1.90;1.80;;;;;;;;;;10500092;28;20210;-70
2022/11/12 04:08:37;;;;;;;1.58;1.58;;;;;;;;;;10501308;28;20681;-70
2022/11/12 04:13:57;;;;;;;1.98;1.92;;;;;;;;;;10497185;28;20218;-71
2022/11/12 04:30:34;;;;;;;1.27;1.27;;;;;;;;;;10499535;28;20213;-70
2022/11/12 04:35:54;;;;;;;2.38;1.95;;;;;;;;;;10497324;28;21463;-70
2022/11/12 04:46:53;;;;;;;1.30;1.30;;;;;;;;;;10501168;28;20225;-70
2022/11/12 04:52:13;;;;;;;1.77;1.60;;;;;;;;;;10488063;28;20214;-69
2022/11/12 04:57:33;;;;;;;1.85;1.17;;;;;;;;;;10488979;28;20647;-68
2022/11/12 05:02:53;;;;;;;1.60;1.50;;;;;;;;;;10497627;28;20320;-69
2022/11/12 05:08:13;;;;;;;1.60;1.50;;;;;;;;;;10501072;28;20201;-68
2022/11/12 05:13:32;;;;;;;1.63;1.33;;;;;;;;;;10501175;28;20209;-69
2022/11/12 05:18:52;;;;;;;1.80;1.15;;;;;;;;;;10497175;28;20222;-69
2022/11/12 05:24:12;;;;;;;2.45;1.13;;;;;;;;;;10500521;28;20296;-68
2022/11/12 05:29:32;;;;;;;1.13;1.13;;;;;;;;;;10482435;28;20241;-68
2022/11/12 05:34:52;;;;;;;4.22;3.03;;;;;;;;;;10493004;28;20693;-69
2022/11/12 05:40:12;;;;;;;2.75;1.55;;;;;;;;;;10497345;28;20214;-69
2022/11/12 05:45:32;;;;;;;1.52;1.42;;;;;;;;;;10496795;28;20210;-67
2022/11/12 05:50:52;;;;;;;1.77;1.60;;;;;;;;;;10496220;28;20197;-69
2022/11/12 05:56:12;;;;;;;1.35;1.33;;;;;;;;;;10491358;28;20213;-68
2022/11/12 06:01:32;;;;;;;1.48;1.38;;;;;;;;;;10489447;28;20773;-69
2022/11/12 06:06:52;;;;;;;1.08;1.08;;;;;;;;;;10491153;28;20716;-69
2022/11/12 06:12:12;;;;;;;1.30;1.20;;;;;;;;;;10480251;28;20229;-68
2022/11/12 06:17:31;;;;;;;1.02;1.02;;;;;;;;;;10489460;28;20819;-69
2022/11/12 06:22:51;;;;;;;1.00;1.00;;;;;;;;;;10493354;28;20975;-68
2022/11/12 06:28:11;;;;;;;1.50;1.45;;;;;;;;;;10478234;28;20261;-69
2022/11/12 06:33:31;;;;;;;1.77;1.63;;;;;;;;;;10490330;28;20210;-69
2022/11/12 06:38:51;;;;;;;5.07;1.80;;;;;;;;;;10477967;28;20712;-69
2022/11/12 06:44:10;;;;;;;1.42;1.40;;;;;;;;;;10496383;28;20217;-69
2022/11/12 06:49:30;;;;;;;1.65;1.55;;;;;;;;;;10492418;28;21081;-68
2022/11/12 06:54:51;;;;;;;2.53;2.00;;;;;;;;;;10487629;28;20292;-69
2022/11/12 07:00:12;;;;;;;2.20;2.00;;;;;;;;;;10498661;28;20216;-68
2022/11/12 07:05:31;;;;;;;8.00;1.92;;;;;;;;;;10488912;28;20213;-68
2022/11/12 07:10:56;;;;;;;3.08;2.90;;;;;;;;;;10489148;28;20210;-69
2022/11/12 07:16:17;;;;;;;3.47;2.55;;;;;;;;;;10487221;28;24182;-70
2022/11/12 07:21:37;;;;;;;2.67;2.47;;;;;;;;;;10495481;28;20320;-69
2022/11/12 07:26:57;;;;;;;3.67;3.13;;;;;;;;;;10477644;28;20210;-70
2022/11/12 07:32:17;;;;;;;4.05;2.95;;;;;;;;;;10483886;28;20301;-70
2022/11/12 07:37:36;;;;;;;2.03;1.85;;;;;;;;;;10497083;28;20704;-69
2022/11/12 07:42:58;;;;;;;7.38;2.67;;;;;;;;;;10495608;28;20240;-70
2022/11/12 07:48:17;;;;;;;3.88;3.53;;;;;;;;;;10500601;28;20603;-69
2022/11/12 07:53:37;;;;;;;4.25;3.63;;;;;;;;;;10506246;28;20202;-69
2022/11/12 07:59:04;;;;;;;3.88;3.50;;;;;;;;;;10498943;28;20226;-69
2022/11/12 08:04:24;;;;;;;4.50;3.05;;;;;;;;;;10486462;28;20205;-70
2022/11/12 08:09:44;;;;;;;3.08;2.88;;;;;;;;;;10502081;28;20716;-69
2022/11/12 08:15:04;;;;;;;3.47;3.15;;;;;;;;;;10501213;28;20304;-68
2022/11/12 08:20:24;;;;;;;3.97;3.60;;;;;;;;;;10498680;28;20229;-70
2022/11/12 08:25:44;;;;;;;4.30;4.00;;;;;;;;;;10490958;28;20210;-70
2022/11/12 08:31:07;;;;;;;7.22;3.63;;;;;;;;;;10489054;28;20624;-70
2022/11/12 08:36:28;;;;;;;3.63;3.33;;;;;;;;;;10509611;28;20674;-70
2022/11/12 08:41:47;;;;;;;4.47;3.00;;;;;;;;;;10500694;28;20214;-70
2022/11/12 08:47:07;;;;;;;3.83;3.47;;;;;;;;;;10499674;28;20209;-70
2022/11/12 08:52:27;;;;;;;2.75;2.63;;;;;;;;;;10510114;28;20206;-72
2022/11/12 08:57:47;;;;;;;3.10;2.90;;;;;;;;;;10502798;28;20682;-72
2022/11/12 09:03:07;;;;;;;4.82;3.35;;;;;;;;;;10484044;28;20665;-71
2022/11/12 09:08:27;;;;;;;3.75;3.55;;;;;;;;;;10490325;28;20984;-73
2022/11/12 09:13:47;;;;;;;3.63;3.33;;;;;;;;;;10494432;28;20213;-72
2022/11/12 09:19:07;;;;;;;3.40;3.17;;;;;;;;;;10490373;28;20270;-73
2022/11/12 09:24:27;;;;;;;2.38;2.28;;;;;;;;;;10476617;28;20813;-72
2022/11/12 09:29:46;;;;;;;2.00;1.90;;;;;;;;;;10479406;28;21888;-71
2022/11/12 09:35:06;;;;;;;2.30;2.20;;;;;;;;;;10487873;28;20316;-74
2022/11/12 09:40:39;;;;;;;2.55;2.38;;;;;;;;;;10488590;28;20221;-68
2022/11/12 09:46:22;;;;;;;3.45;2.08;;;;;;;;;;10492236;28;20216;-71
2022/11/12 09:51:49;;;;;;;2.42;2.28;;;;;;;;;;10487105;28;20233;-70
2022/11/12 09:57:11;;;;;;;2.63;2.45;;;;;;;;;;10486692;28;20206;-70
2022/11/12 10:02:36;;;;;;;2.30;2.15;;;;;;;;;;10486471;28;20214;-70
2022/11/12 10:07:58;;;;;;;3.47;2.97;;;;;;;;;;10482411;28;20210;-69
2022/11/12 10:13:30;;;;;;;2.70;2.67;;;;;;;;;;10477180;28;20214;-69
2022/11/12 10:18:52;;;;;;;4.53;2.45;;;;;;;;;;10479853;28;20971;-69
2022/11/12 10:24:12;;;;;;;2.90;2.67;;;;;;;;;;10482287;28;20696;-69
2022/11/12 10:29:37;;;;;;;2.58;2.40;;;;;;;;;;10483016;28;20241;-69
2022/11/12 10:34:56;;;;;;;2.30;2.10;;;;;;;;;;10483167;28;20214;-69
2022/11/12 10:40:26;;;;;;;2.10;2.00;;;;;;;;;;10490451;28;20732;-69
2022/11/12 10:45:46;;;;;;;1.88;1.77;;;;;;;;;;10489800;28;20665;-69
2022/11/12 10:51:19;;;;;;;2.85;2.60;;;;;;;;;;10488291;28;20422;-69
2022/11/12 10:56:39;;;;;;;2.40;2.30;;;;;;;;;;10492842;28;20294;-70
2022/11/12 11:02:00;;;;;;;3.08;2.15;;;;;;;;;;10479164;28;20252;-73
2022/11/12 11:07:22;;;;;;;2.80;2.70;;;;;;;;;;10475519;28;20210;-73
2022/11/12 11:12:42;;;;;;;3.13;2.90;;;;;;;;;;10486141;28;20256;-72
2022/11/12 11:18:01;;;;;;;3.40;3.15;;;;;;;;;;10486877;28;20234;-71
2022/11/12 11:23:36;;;;;;;3.95;3.60;;;;;;;;;;10484255;28;20886;-71
2022/11/12 11:29:08;;;;;;;3.72;3.22;;;;;;;;;;10493346;28;20205;-72
2022/11/12 11:34:37;;;;;;;3.15;3.00;;;;;;;;;;10497055;28;20221;-72
2022/11/12 11:39:57;;;;;;;2.80;2.60;;;;;;;;;;10492333;28;20222;-71
2022/11/12 11:45:27;;;;;;;2.78;2.42;;;;;;;;;;10502157;28;21233;-72
2022/11/12 11:51:08;;;;;;;1.92;1.83;;;;;;;;;;10503478;28;20698;-71
2022/11/12 11:56:37;;;;;;;2.67;1.83;;;;;;;;;;10473641;28;20210;-72
2022/11/12 12:02:15;;;;;;;5.57;1.80;;;;;;;;;;10486881;28;20221;-71
2022/11/12 12:08:02;;;;;;;4.25;1.98;;;;;;;;;;10499918;28;20214;-71
2022/11/12 12:13:33;;;;;;;4.15;3.33;;;;;;;;;;10470156;28;20214;-71
2022/11/12 12:19:12;;;;;;;1.40;1.40;;;;;;;;;;10486573;28;20651;-71
2022/11/12 12:24:35;;;;;;;2.20;2.00;;;;;;;;;;10500428;28;20209;-71
2022/11/12 12:30:06;;;;;;;2.47;2.38;;;;;;;;;;10499213;28;20206;-72
2022/11/12 12:35:38;;;;;;;3.40;2.63;;;;;;;;;;10496023;28;20218;-72
2022/11/12 12:41:26;;;;;;;3.00;2.63;;;;;;;;;;10503763;28;20218;-72
2022/11/12 12:46:48;;;;;;;1.77;1.67;;;;;;;;;;10505858;28;20247;-72
2022/11/12 12:52:11;;;;;;;1.70;1.70;;;;;;;;;;10489481;28;20304;-71
2022/11/12 12:57:37;;;;;;;2.58;2.13;;;;;;;;;;10485398;28;20233;-71
2022/11/12 13:02:57;;;;;;;3.92;2.00;;;;;;;;;;10502261;28;20217;-71
2022/11/12 13:08:24;;;;;;;1.80;1.70;;;;;;;;;;10501240;28;20218;-71
2022/11/12 13:13:43;;;;;;;2.00;1.90;;;;;;;;;;10490980;28;20312;-70
2022/11/12 13:19:03;;;;;;;2.22;1.80;;;;;;;;;;10500394;28;20229;-71
2022/11/12 13:24:42;;;;;;;2.80;2.13;;;;;;;;;;10496698;28;20234;-71
2022/11/12 13:30:02;;;;;;;2.05;1.95;;;;;;;;;;10495237;28;20206;-71
2022/11/12 13:35:29;;;;;;;1.50;1.40;;;;;;;;;;10495014;28;20332;-71
2022/11/12 13:41:06;;;;;;;2.80;1.85;;;;;;;;;;10481169;28;20221;-71
2022/11/12 13:46:31;;;;;;;4.47;1.65;;;;;;;;;;10497150;28;20214;-68
2022/11/12 13:51:52;;;;;;;3.15;1.45;;;;;;;;;;10491924;28;20204;-70
2022/11/12 13:57:31;;;;;;;1.50;1.40;;;;;;;;;;10493226;28;20213;-71
2022/11/12 14:02:58;;;;;;;1.70;1.60;;;;;;;;;;10495100;28;20218;-71
2022/11/12 14:08:30;;;;;;;2.85;2.13;;;;;;;;;;10474183;28;20300;-71
2022/11/12 14:13:50;;;;;;;1.98;1.75;;;;;;;;;;10493959;28;20611;-71
2022/11/12 14:19:15;;;;;;;3.03;1.85;;;;;;;;;;10491492;28;20229;-71
2022/11/12 14:24:35;;;;;;;1.92;1.83;;;;;;;;;;10493244;28;20681;-71
2022/11/12 14:30:10;;;;;;;2.58;2.38;;;;;;;;;;10482040;28;20212;-71
2022/11/12 14:35:32;;;;;;;9.18;4.55;;;;;;;;;;10497906;28;20884;-71
2022/11/12 14:40:56;;;;;;;2.70;2.50;;;;;;;;;;10500841;28;20217;-70
2022/11/12 14:46:27;;;;;;;2.13;2.03;;;;;;;;;;10495582;28;20740;-71
2022/11/12 14:51:48;;;;;;;4.65;3.78;;;;;;;;;;10491500;28;20594;-73
2022/11/12 14:57:11;;;;;;;4.50;4.13;;;;;;;;;;10487968;28;21002;-71
2022/11/12 15:02:31;;;;;;;4.00;3.72;;;;;;;;;;10498228;28;20685;-73
2022/11/12 15:07:56;;;;;;;5.55;3.85;;;;;;;;;;10500989;28;20303;-72
2022/11/12 15:13:18;;;;;;;3.53;3.22;;;;;;;;;;10506362;28;20221;-69
2022/11/12 15:18:39;;;;;;;4.55;2.67;;;;;;;;;;10504515;28;20229;-68
2022/11/12 15:23:58;;;;;;;3.08;2.88;;;;;;;;;;10484986;28;20201;-70
2022/11/12 15:29:26;;;;;;;3.85;3.42;;;;;;;;;;10492666;28;20210;-71
2022/11/12 15:34:50;;;;;;;4.03;3.60;;;;;;;;;;10500198;28;20218;-69
2022/11/12 15:40:17;;;;;;;7.45;4.18;;;;;;;;;;10488932;28;20217;-72
2022/11/12 15:45:37;;;;;;;6.10;4.50;;;;;;;;;;10498130;28;20209;-74
2022/11/12 15:50:57;;;;;;;4.32;3.97;;;;;;;;;;10504011;28;20292;-73
2022/11/12 15:56:18;;;;;;;4.95;4.50;;;;;;;;;;10504520;28;20209;-74
2022/11/12 16:01:38;;;;;;;4.15;3.65;;;;;;;;;;10498937;28;20796;-73
2022/11/12 16:06:58;;;;;;;4.78;4.05;;;;;;;;;;10480831;28;20221;-74
2022/11/12 16:12:18;;;;;;;6.10;5.07;;;;;;;;;;10502279;28;20213;-74
2022/11/12 16:17:38;;;;;;;5.78;4.82;;;;;;;;;;10488267;28;20757;-75
2022/11/12 16:22:58;;;;;;;6.55;4.63;;;;;;;;;;10501442;28;20697;-74
2022/11/12 16:28:18;;;;;;;5.43;4.95;;;;;;;;;;10506182;28;20241;-74
2022/11/12 16:33:38;;;;;;;10.50;6.47;;;;;;;;;;10498664;28;20209;-71
2022/11/12 16:38:58;;;;;;;11.75;8.00;;;;;;;;;;10497850;28;20214;-72
2022/11/12 16:44:18;;;;;;;12.05;7.70;;;;;;;;;;10485715;28;20324;-71
2022/11/12 16:49:37;;;;;;;13.98;7.75;;;;;;;;;;10485147;28;20218;-71
2022/11/12 16:54:57;;;;;;;12.05;9.10;;;;;;;;;;10492682;28;20308;-72
2022/11/12 17:00:17;;;;;;;12.65;7.85;;;;;;;;;;10490315;28;20218;-69
2022/11/12 17:05:37;;;;;;;10.68;8.40;;;;;;;;;;10484330;28;20206;-71
2022/11/12 17:10:57;;;;;;;11.32;8.30;;;;;;;;;;10480866;28;21028;-69
2022/11/12 17:16:17;;;;;;;16.77;10.30;;;;;;;;;;10496158;28;20210;-71
2022/11/12 17:21:37;;;;;;;11.32;9.10;;;;;;;;;;10491501;28;20222;-71
2022/11/12 17:26:58;;;;;;;17.30;10.73;;;;;;;;;;10479693;28;20303;-71
2022/11/12 17:32:18;;;;;;;14.43;9.73;;;;;;;;;;10476781;28;20214;-70
2022/11/12 17:37:38;;;;;;;13.07;8.65;;;;;;;;;;10484334;28;20213;-72
2022/11/12 17:42:58;;;;;;;9.35;7.47;;;;;;;;;;10496180;28;20225;-72
2022/11/12 17:48:19;;;;;;;10.38;7.07;;;;;;;;;;10490831;28;20423;-71
2022/11/12 17:53:38;;;;;;;8.15;5.97;;;;;;;;;;10497892;28;20681;-72
2022/11/12 17:58:58;;;;;;;7.15;6.30;;;;;;;;;;10494061;28;20213;-71
2022/11/12 18:04:18;;;;;;;8.38;6.30;;;;;;;;;;10495161;28;20213;-72
2022/11/12 18:09:38;;;;;;;14.32;7.03;;;;;;;;;;10477181;28;20705;-71
2022/11/12 18:14:57;;;;;;;16.70;7.80;;;;;;;;;;10496553;28;20218;-72
2022/11/12 18:20:18;;;;;;;20.27;9.13;;;;;;;;;;10464597;28;24532;-71
2022/11/12 18:25:38;;;;;;;18.85;10.27;;;;;;;;;;10435625;28;20219;-71
2022/11/12 18:30:59;;;;;;;27.75;13.25;;;;;;;;;;10452594;28;20686;-71
2022/11/12 18:36:22;;;;;;;23.02;11.02;;;;;;;;;;10449318;28;20210;-70
2022/11/12 18:41:42;;;;;;;13.48;8.90;;;;;;;;;;10451717;28;20226;-72
2022/11/12 18:47:02;;;;;;;14.35;8.98;;;;;;;;;;10440348;28;20234;-69
2022/11/12 18:52:22;;;;;;;14.13;7.60;;;;;;;;;;10450917;28;20320;-68
2022/11/12 18:57:42;;;;;;;11.45;7.68;;;;;;;;;;10449555;28;20821;-68
2022/11/12 19:03:02;;;;;;;9.50;6.45;;;;;;;;;;10446422;28;20238;-68
2022/11/12 19:08:22;;;;;;;6.38;5.35;;;;;;;;;;10447231;28;20222;-68
2022/11/12 19:13:42;;;;;;;8.70;5.65;;;;;;;;;;10446848;28;20214;-69
2022/11/12 19:19:01;;;;;;;10.82;6.30;;;;;;;;;;10446718;28;20258;-68
2022/11/12 19:24:21;;;;;;;12.43;6.43;;;;;;;;;;10443100;28;20233;-73
2022/11/12 19:29:41;;;;;;;7.50;6.07;;;;;;;;;;10442694;28;20211;-69
2022/11/12 19:35:01;;;;;;;8.65;6.03;;;;;;;;;;10445888;28;20214;-66
2022/11/12 19:40:21;;;;;;;10.00;6.18;;;;;;;;;;10459287;28;22709;-65
2022/11/12 19:45:40;;;;;;;6.97;5.45;;;;;;;;;;10441599;28;20947;-67
2022/11/12 19:51:04;;;;;;;7.75;5.82;;;;;;;;;;10444688;28;20573;-67
2022/11/12 19:56:24;;;;;;;9.85;5.72;;;;;;;;;;10456984;28;21049;-67
2022/11/12 20:01:43;;;;;;;8.50;6.13;;;;;;;;;;10460617;28;20225;-65
2022/11/12 20:07:03;;;;;;;6.25;5.63;;;;;;;;;;10447243;28;20222;-71
2022/11/12 20:12:24;;;;;;;6.68;5.45;;;;;;;;;;10446661;28;20223;-67
2022/11/12 20:17:44;;;;;;;8.15;6.60;;;;;;;;;;10454584;28;20313;-66
2022/11/12 20:23:03;;;;;;;6.07;5.07;;;;;;;;;;10496768;28;20866;-67
2022/11/12 20:28:23;;;;;;;5.82;5.25;;;;;;;;;;10486020;28;20300;-67
2022/11/12 20:33:43;;;;;;;7.63;4.93;;;;;;;;;;10498903;28;20205;-68
2022/11/12 20:39:03;;;;;;;5.70;4.72;;;;;;;;;;10500560;28;20222;-67
2022/11/12 20:44:23;;;;;;;5.38;4.53;;;;;;;;;;10497222;28;20213;-67
2022/11/12 20:49:42;;;;;;;5.78;4.90;;;;;;;;;;10488664;28;20213;-67
2022/11/12 20:55:02;;;;;;;13.10;7.82;;;;;;;;;;10493834;28;20997;-66
2022/11/12 21:00:22;;;;;;;9.10;6.28;;;;;;;;;;10498512;28;20319;-68
2022/11/12 21:05:42;;;;;;;8.07;5.72;;;;;;;;;;10499186;28;20322;-68
2022/11/12 21:11:04;;;;;;;12.40;6.50;;;;;;;;;;10495350;28;20221;-67
2022/11/12 21:16:24;;;;;;;10.93;6.68;;;;;;;;;;10497070;28;20217;-66
2022/11/12 21:21:43;;;;;;;10.88;6.30;;;;;;;;;;10493352;28;20316;-68
2022/11/12 21:27:03;;;;;;;13.10;6.55;;;;;;;;;;10498314;28;20234;-67
2022/11/12 21:32:23;;;;;;;8.70;6.88;;;;;;;;;;10480136;28;20241;-68
2022/11/12 21:37:43;;;;;;;18.38;8.05;;;;;;;;;;10481061;28;20210;-69
2022/11/12 21:43:03;;;;;;;11.70;8.43;;;;;;;;;;10490056;28;20224;-67
2022/11/12 21:48:23;;;;;;;11.40;7.75;;;;;;;;;;10498882;28;20214;-69
2022/11/12 21:53:43;;;;;;;11.20;7.55;;;;;;;;;;10481320;28;20684;-68
2022/11/12 21:59:03;;;;;;;10.13;6.80;;;;;;;;;;10488493;28;20218;-69
2022/11/12 22:04:23;;;;;;;10.43;7.38;;;;;;;;;;10477892;28;20206;-69
2022/11/12 22:09:42;;;;;;;9.65;7.60;;;;;;;;;;10497660;28;20705;-68
2022/11/12 22:15:02;;;;;;;7.97;7.13;;;;;;;;;;10483692;28;20301;-68
2022/11/12 22:20:22;;;;;;;7.93;6.80;;;;;;;;;;10498200;28;20635;-68
2022/11/12 22:25:42;;;;;;;8.15;6.80;;;;;;;;;;10501007;28;20688;-67
2022/11/12 22:31:07;;;;;;;16.73;9.75;;;;;;;;;;10500286;28;20221;-67
2022/11/12 22:36:28;;;;;;;15.50;9.93;;;;;;;;;;10500313;28;20277;-67
2022/11/12 22:41:47;;;;;;;15.35;8.77;;;;;;;;;;10497857;28;20245;-67
2022/11/12 22:47:07;;;;;;;21.02;11.50;;;;;;;;;;10499989;28;20680;-67
2022/11/12 22:52:27;;;;;;;36.70;16.55;;;;;;;;;;10492001;28;20205;-68
2022/11/12 22:57:47;;;;;;;24.50;13.60;;;;;;;;;;10485050;28;20213;-68
2022/11/12 23:03:07;;;;;;;23.42;11.02;;;;;;;;;;10482619;28;20638;-68
2022/11/12 23:08:27;;;;;;;17.70;10.43;;;;;;;;;;10498134;28;20320;-68
2022/11/12 23:13:47;;;;;;;16.98;9.82;;;;;;;;;;10505306;28;20221;-68
2022/11/12 23:19:07;;;;;;;15.30;9.75;;;;;;;;;;10483986;28;20227;-66
2022/11/12 23:24:27;;;;;;;11.82;8.55;;;;;;;;;;10462725;28;20214;-68
2022/11/12 23:29:47;;;;;;;11.27;8.00;;;;;;;;;;10466380;28;20213;-68
2022/11/12 23:35:07;;;;;;;8.68;7.03;;;;;;;;;;10452923;28;20204;-69
2022/11/12 23:40:26;;;;;;;12.18;8.07;;;;;;;;;;10459281;28;20694;-68
2022/11/12 23:45:49;;;;;;;9.25;7.70;;;;;;;;;;10463337;28;20206;-69
2022/11/12 23:51:13;;;;;;;10.45;7.85;;;;;;;;;;10467980;28;20210;-69
2022/11/12 23:56:32;;;;;;;10.93;7.82;;;;;;;;;;10464353;28;20214;-69
